sensor_id;sensor_type;location;lat;lon;timestamp;temperature;humidity
28767;DHT22;15921;52.034;20.650;2022-09-01T00:01:27;12.00;99.90
28767;DHT22;15921;52.034;20.650;2022-09-01T00:03:54;12.00;99.90
28767;DHT22;15921;52.034;20.650;2022-09-01T00:06:22;11.90;99.90
28767;DHT22;15921;52.034;20.650;2022-09-01T00:08:53;11.80;99.90
28767;DHT22;15921;52.034;20.650;2022-09-01T00:11:20;11.80;99.90
28767;DHT22;15921;52.034;20.650;2022-09-01T00:13:47;11.70;99.90
28767;DHT22;15921;52.034;20.650;2022-09-01T00:16:14;11.60;99.90
28767;DHT22;15921;52.034;20.650;2022-09-01T00:18:43;11.60;99.90
28767;DHT22;15921;52.034;20.650;2022-09-01T00:21:12;11.50;99.90
28767;DHT22;15921;52.034;20.650;2022-09-01T00:23:38;11.50;99.90
28767;DHT22;15921;52.034;20.650;2022-09-01T00:26:05;11.40;99.90
28767;DHT22;15921;52.034;20.650;2022-09-01T00:28:35;11.40;99.90
28767;DHT22;15921;52.034;20.650;2022-09-01T00:31:01;11.30;99.90
28767;DHT22;15921;52.034;20.650;2022-09-01T00:33:27;11.30;99.90
28767;DHT22;15921;52.034;20.650;2022-09-01T00:35:53;11.30;99.90
28767;DHT22;15921;52.034;20.650;2022-09-01T00:38:19;11.20;99.90
28767;DHT22;15921;52.034;20.650;2022-09-01T00:40:45;11.20;99.90
28767;DHT22;15921;52.034;20.650;2022-09-01T00:43:17;11.20;99.90
28767;DHT22;15921;52.034;20.650;2022-09-01T00:45:43;11.10;99.90
28767;DHT22;15921;52.034;20.650;2022-09-01T00:48:09;11.10;99.90
28767;DHT22;15921;52.034;20.650;2022-09-01T00:50:36;11.10;99.90
28767;DHT22;15921;52.034;20.650;2022-09-01T00:53:03;11.00;99.90
28767;DHT22;15921;52.034;20.650;2022-09-01T00:55:31;11.00;99.90
28767;DHT22;15921;52.034;20.650;2022-09-01T00:57:58;10.90;99.90
28767;DHT22;15921;52.034;20.650;2022-09-01T01:00:28;10.80;99.90
28767;DHT22;15921;52.034;20.650;2022-09-01T01:02:54;10.80;99.90
28767;DHT22;15921;52.034;20.650;2022-09-01T01:05:26;10.70;99.90
28767;DHT22;15921;52.034;20.650;2022-09-01T01:07:55;10.60;99.90
28767;DHT22;15921;52.034;20.650;2022-09-01T01:10:22;10.50;99.90
28767;DHT22;15921;52.034;20.650;2022-09-01T01:12:48;10.50;99.90
28767;DHT22;15921;52.034;20.650;2022-09-01T01:15:17;10.40;99.90
28767;DHT22;15921;52.034;20.650;2022-09-01T01:17:43;10.30;99.90
28767;DHT22;15921;52.034;20.650;2022-09-01T01:20:10;10.20;99.90
28767;DHT22;15921;52.034;20.650;2022-09-01T01:23:09;10.20;99.90
28767;DHT22;15921;52.034;20.650;2022-09-01T01:25:51;10.10;99.90
28767;DHT22;15921;52.034;20.650;2022-09-01T01:28:39;10.00;99.90
28767;DHT22;15921;52.034;20.650;2022-09-01T01:31:16;10.00;99.90
28767;DHT22;15921;52.034;20.650;2022-09-01T01:33:48;9.80;99.90
28767;DHT22;15921;52.034;20.650;2022-09-01T01:36:22;9.80;99.90
28767;DHT22;15921;52.034;20.650;2022-09-01T01:38:52;9.80;99.90
28767;DHT22;15921;52.034;20.650;2022-09-01T01:41:18;9.70;99.90
28767;DHT22;15921;52.034;20.650;2022-09-01T01:43:44;9.60;99.90
28767;DHT22;15921;52.034;20.650;2022-09-01T01:46:11;9.60;99.90
28767;DHT22;15921;52.034;20.650;2022-09-01T01:48:40;9.50;99.90
28767;DHT22;15921;52.034;20.650;2022-09-01T01:51:08;9.50;99.90
28767;DHT22;15921;52.034;20.650;2022-09-01T01:53:35;9.40;99.90
28767;DHT22;15921;52.034;20.650;2022-09-01T01:56:01;9.40;99.90
28767;DHT22;15921;52.034;20.650;2022-09-01T01:58:27;9.40;99.90
28767;DHT22;15921;52.034;20.650;2022-09-01T02:00:57;9.30;99.90
28767;DHT22;15921;52.034;20.650;2022-09-01T02:03:26;9.30;99.90
28767;DHT22;15921;52.034;20.650;2022-09-01T02:05:54;9.30;99.90
28767;DHT22;15921;52.034;20.650;2022-09-01T02:08:21;9.30;99.90
28767;DHT22;15921;52.034;20.650;2022-09-01T02:10:52;9.30;99.90
28767;DHT22;15921;52.034;20.650;2022-09-01T02:13:21;9.20;99.90
28767;DHT22;15921;52.034;20.650;2022-09-01T02:15:52;9.20;99.90
28767;DHT22;15921;52.034;20.650;2022-09-01T02:18:27;9.10;99.90
28767;DHT22;15921;52.034;20.650;2022-09-01T02:20:54;9.10;99.90
28767;DHT22;15921;52.034;20.650;2022-09-01T02:23:21;9.00;99.90
28767;DHT22;15921;52.034;20.650;2022-09-01T02:25:56;9.00;99.90
28767;DHT22;15921;52.034;20.650;2022-09-01T02:28:26;8.90;99.90
28767;DHT22;15921;52.034;20.650;2022-09-01T02:30:52;8.90;99.90
28767;DHT22;15921;52.034;20.650;2022-09-01T02:33:20;8.90;99.90
28767;DHT22;15921;52.034;20.650;2022-09-01T02:35:53;8.90;99.90
28767;DHT22;15921;52.034;20.650;2022-09-01T02:38:19;8.80;99.90
28767;DHT22;15921;52.034;20.650;2022-09-01T02:40:48;8.80;99.90
28767;DHT22;15921;52.034;20.650;2022-09-01T02:43:15;8.80;99.90
28767;DHT22;15921;52.034;20.650;2022-09-01T02:45:49;8.70;99.90
28767;DHT22;15921;52.034;20.650;2022-09-01T02:51:00;8.60;99.90
28767;DHT22;15921;52.034;20.650;2022-09-01T02:53:28;8.60;99.90
28767;DHT22;15921;52.034;20.650;2022-09-01T02:55:54;8.60;99.90
28767;DHT22;15921;52.034;20.650;2022-09-01T02:58:24;8.50;99.90
28767;DHT22;15921;52.034;20.650;2022-09-01T03:00:55;8.40;99.90
28767;DHT22;15921;52.034;20.650;2022-09-01T03:03:23;8.30;99.90
28767;DHT22;15921;52.034;20.650;2022-09-01T03:05:51;8.30;99.90
28767;DHT22;15921;52.034;20.650;2022-09-01T03:08:22;8.20;99.90
28767;DHT22;15921;52.034;20.650;2022-09-01T03:10:49;8.20;99.90
28767;DHT22;15921;52.034;20.650;2022-09-01T03:13:21;8.20;99.90
28767;DHT22;15921;52.034;20.650;2022-09-01T03:15:48;8.10;99.90
28767;DHT22;15921;52.034;20.650;2022-09-01T03:18:14;8.10;99.90
28767;DHT22;15921;52.034;20.650;2022-09-01T03:20:42;8.10;99.90
28767;DHT22;15921;52.034;20.650;2022-09-01T03:23:13;8.00;99.90
28767;DHT22;15921;52.034;20.650;2022-09-01T03:25:44;8.00;99.90
28767;DHT22;15921;52.034;20.650;2022-09-01T03:28:14;7.90;99.90
28767;DHT22;15921;52.034;20.650;2022-09-01T03:30:45;7.90;99.90
28767;DHT22;15921;52.034;20.650;2022-09-01T03:33:12;7.90;99.90
28767;DHT22;15921;52.034;20.650;2022-09-01T03:35:38;7.90;99.90
28767;DHT22;15921;52.034;20.650;2022-09-01T03:38:04;7.90;99.90
28767;DHT22;15921;52.034;20.650;2022-09-01T03:40:32;7.90;99.90
28767;DHT22;15921;52.034;20.650;2022-09-01T03:42:59;7.90;99.90
28767;DHT22;15921;52.034;20.650;2022-09-01T03:45:25;7.90;99.90
28767;DHT22;15921;52.034;20.650;2022-09-01T03:47:52;7.90;99.90
28767;DHT22;15921;52.034;20.650;2022-09-01T03:50:21;7.90;99.90
28767;DHT22;15921;52.034;20.650;2022-09-01T03:52:51;7.90;99.90
28767;DHT22;15921;52.034;20.650;2022-09-01T03:55:23;8.00;99.90
28767;DHT22;15921;52.034;20.650;2022-09-01T03:57:53;8.00;99.90
28767;DHT22;15921;52.034;20.650;2022-09-01T04:00:20;8.10;99.90
28767;DHT22;15921;52.034;20.650;2022-09-01T04:02:53;8.10;99.90
28767;DHT22;15921;52.034;20.650;2022-09-01T04:05:24;8.10;99.90
28767;DHT22;15921;52.034;20.650;2022-09-01T04:07:57;8.20;99.90
28767;DHT22;15921;52.034;20.650;2022-09-01T04:10:25;8.30;99.90
28767;DHT22;15921;52.034;20.650;2022-09-01T04:12:51;8.30;99.90
28767;DHT22;15921;52.034;20.650;2022-09-01T04:15:17;8.40;99.90
28767;DHT22;15921;52.034;20.650;2022-09-01T04:17:44;8.40;99.90
28767;DHT22;15921;52.034;20.650;2022-09-01T04:20:29;8.50;99.90
28767;DHT22;15921;52.034;20.650;2022-09-01T04:23:05;8.60;99.90
28767;DHT22;15921;52.034;20.650;2022-09-01T04:25:36;8.60;99.90
28767;DHT22;15921;52.034;20.650;2022-09-01T04:28:04;8.70;99.90
28767;DHT22;15921;52.034;20.650;2022-09-01T04:30:40;8.70;99.90
28767;DHT22;15921;52.034;20.650;2022-09-01T04:33:07;8.80;99.90
28767;DHT22;15921;52.034;20.650;2022-09-01T04:35:37;8.90;99.90
28767;DHT22;15921;52.034;20.650;2022-09-01T04:38:03;9.00;99.90
28767;DHT22;15921;52.034;20.650;2022-09-01T04:40:30;9.00;99.90
28767;DHT22;15921;52.034;20.650;2022-09-01T04:42:56;9.10;99.90
28767;DHT22;15921;52.034;20.650;2022-09-01T04:45:21;9.20;99.90
28767;DHT22;15921;52.034;20.650;2022-09-01T04:47:49;9.30;99.90
28767;DHT22;15921;52.034;20.650;2022-09-01T04:50:17;9.40;99.90
28767;DHT22;15921;52.034;20.650;2022-09-01T04:52:44;9.50;99.90
28767;DHT22;15921;52.034;20.650;2022-09-01T04:55:12;9.60;99.90
28767;DHT22;15921;52.034;20.650;2022-09-01T04:57:46;9.70;99.90
28767;DHT22;15921;52.034;20.650;2022-09-01T05:00:18;9.90;99.90
28767;DHT22;15921;52.034;20.650;2022-09-01T05:02:55;10.00;99.90
28767;DHT22;15921;52.034;20.650;2022-09-01T05:05:29;10.10;99.90
28767;DHT22;15921;52.034;20.650;2022-09-01T05:07:55;10.30;99.90
28767;DHT22;15921;52.034;20.650;2022-09-01T05:10:22;10.40;99.90
28767;DHT22;15921;52.034;20.650;2022-09-01T05:12:53;10.50;99.90
28767;DHT22;15921;52.034;20.650;2022-09-01T05:15:21;10.60;99.90
28767;DHT22;15921;52.034;20.650;2022-09-01T05:17:47;10.70;99.90
28767;DHT22;15921;52.034;20.650;2022-09-01T05:20:13;10.90;99.90
28767;DHT22;15921;52.034;20.650;2022-09-01T05:22:40;11.00;99.90
28767;DHT22;15921;52.034;20.650;2022-09-01T05:25:08;11.10;99.90
28767;DHT22;15921;52.034;20.650;2022-09-01T05:27:42;11.20;99.90
28767;DHT22;15921;52.034;20.650;2022-09-01T05:30:15;11.30;99.90
28767;DHT22;15921;52.034;20.650;2022-09-01T05:32:42;11.40;99.90
28767;DHT22;15921;52.034;20.650;2022-09-01T05:35:08;11.50;99.90
28767;DHT22;15921;52.034;20.650;2022-09-01T05:37:35;11.60;99.90
28767;DHT22;15921;52.034;20.650;2022-09-01T05:40:05;11.70;99.90
28767;DHT22;15921;52.034;20.650;2022-09-01T05:42:31;11.80;99.90
28767;DHT22;15921;52.034;20.650;2022-09-01T05:44:59;11.90;99.90
28767;DHT22;15921;52.034;20.650;2022-09-01T05:47:24;11.90;99.90
28767;DHT22;15921;52.034;20.650;2022-09-01T05:49:51;12.00;99.90
28767;DHT22;15921;52.034;20.650;2022-09-01T05:52:18;12.10;99.90
28767;DHT22;15921;52.034;20.650;2022-09-01T05:54:50;12.20;99.90
28767;DHT22;15921;52.034;20.650;2022-09-01T05:57:22;12.20;99.90
28767;DHT22;15921;52.034;20.650;2022-09-01T05:59:48;12.40;99.90
28767;DHT22;15921;52.034;20.650;2022-09-01T06:02:21;12.40;99.90
28767;DHT22;15921;52.034;20.650;2022-09-01T06:04:47;12.50;99.90
28767;DHT22;15921;52.034;20.650;2022-09-01T06:07:15;12.60;99.90
28767;DHT22;15921;52.034;20.650;2022-09-01T06:09:45;12.70;99.90
28767;DHT22;15921;52.034;20.650;2022-09-01T06:12:12;12.80;99.90
28767;DHT22;15921;52.034;20.650;2022-09-01T06:14:44;12.90;99.90
28767;DHT22;15921;52.034;20.650;2022-09-01T06:17:10;12.90;99.90
28767;DHT22;15921;52.034;20.650;2022-09-01T06:19:37;13.00;99.90
28767;DHT22;15921;52.034;20.650;2022-09-01T06:22:04;13.10;99.90
28767;DHT22;15921;52.034;20.650;2022-09-01T06:24:30;13.20;99.90
28767;DHT22;15921;52.034;20.650;2022-09-01T06:26:56;13.30;99.90
28767;DHT22;15921;52.034;20.650;2022-09-01T06:29:24;13.40;99.90
28767;DHT22;15921;52.034;20.650;2022-09-01T06:31:49;13.50;99.90
28767;DHT22;15921;52.034;20.650;2022-09-01T06:34:17;13.60;99.90
28767;DHT22;15921;52.034;20.650;2022-09-01T06:36:45;13.70;99.90
28767;DHT22;15921;52.034;20.650;2022-09-01T06:39:12;13.80;99.90
28767;DHT22;15921;52.034;20.650;2022-09-01T06:41:48;13.80;99.90
28767;DHT22;15921;52.034;20.650;2022-09-01T06:44:18;13.90;99.90
28767;DHT22;15921;52.034;20.650;2022-09-01T06:46:48;14.00;99.90
28767;DHT22;15921;52.034;20.650;2022-09-01T06:49:14;14.10;99.90
28767;DHT22;15921;52.034;20.650;2022-09-01T06:51:40;14.20;99.90
28767;DHT22;15921;52.034;20.650;2022-09-01T06:54:05;14.30;99.90
28767;DHT22;15921;52.034;20.650;2022-09-01T06:56:32;14.40;99.90
28767;DHT22;15921;52.034;20.650;2022-09-01T06:59:00;14.60;99.90
28767;DHT22;15921;52.034;20.650;2022-09-01T07:01:28;14.60;99.90
28767;DHT22;15921;52.034;20.650;2022-09-01T07:03:54;14.70;99.90
28767;DHT22;15921;52.034;20.650;2022-09-01T07:06:25;14.70;99.90
28767;DHT22;15921;52.034;20.650;2022-09-01T07:08:56;14.80;99.90
28767;DHT22;15921;52.034;20.650;2022-09-01T07:11:28;15.00;99.90
28767;DHT22;15921;52.034;20.650;2022-09-01T07:14:01;15.00;99.90
28767;DHT22;15921;52.034;20.650;2022-09-01T07:16:30;15.10;99.90
28767;DHT22;15921;52.034;20.650;2022-09-01T07:19:00;15.20;99.90
28767;DHT22;15921;52.034;20.650;2022-09-01T07:21:28;15.30;99.90
28767;DHT22;15921;52.034;20.650;2022-09-01T07:23:54;15.40;99.90
28767;DHT22;15921;52.034;20.650;2022-09-01T07:26:22;15.50;99.90
28767;DHT22;15921;52.034;20.650;2022-09-01T07:28:50;15.60;99.90
28767;DHT22;15921;52.034;20.650;2022-09-01T07:31:22;15.70;99.90
28767;DHT22;15921;52.034;20.650;2022-09-01T07:33:50;15.80;99.90
28767;DHT22;15921;52.034;20.650;2022-09-01T07:36:17;15.90;99.90
28767;DHT22;15921;52.034;20.650;2022-09-01T07:38:44;16.00;99.90
28767;DHT22;15921;52.034;20.650;2022-09-01T07:41:10;16.10;99.90
28767;DHT22;15921;52.034;20.650;2022-09-01T07:43:40;16.20;99.90
28767;DHT22;15921;52.034;20.650;2022-09-01T07:46:10;16.30;99.90
28767;DHT22;15921;52.034;20.650;2022-09-01T07:48:36;16.40;99.90
28767;DHT22;15921;52.034;20.650;2022-09-01T07:51:03;16.40;99.90
28767;DHT22;15921;52.034;20.650;2022-09-01T07:53:32;16.60;99.90
28767;DHT22;15921;52.034;20.650;2022-09-01T07:56:00;16.70;99.90
28767;DHT22;15921;52.034;20.650;2022-09-01T07:58:31;16.90;99.90
28767;DHT22;15921;52.034;20.650;2022-09-01T08:00:58;17.10;99.90
28767;DHT22;15921;52.034;20.650;2022-09-01T08:03:28;17.20;99.90
28767;DHT22;15921;52.034;20.650;2022-09-01T08:05:54;17.30;99.90
28767;DHT22;15921;52.034;20.650;2022-09-01T08:08:24;17.20;99.90
28767;DHT22;15921;52.034;20.650;2022-09-01T08:10:50;17.30;99.90
28767;DHT22;15921;52.034;20.650;2022-09-01T08:13:17;17.40;99.90
28767;DHT22;15921;52.034;20.650;2022-09-01T08:15:42;17.50;99.90
28767;DHT22;15921;52.034;20.650;2022-09-01T08:18:09;17.60;99.90
28767;DHT22;15921;52.034;20.650;2022-09-01T08:20:38;17.60;99.90
28767;DHT22;15921;52.034;20.650;2022-09-01T08:23:06;17.70;99.90
28767;DHT22;15921;52.034;20.650;2022-09-01T08:25:33;17.90;99.90
28767;DHT22;15921;52.034;20.650;2022-09-01T08:28:00;18.00;99.90
28767;DHT22;15921;52.034;20.650;2022-09-01T08:30:26;18.10;99.90
28767;DHT22;15921;52.034;20.650;2022-09-01T08:32:52;18.30;99.90
28767;DHT22;15921;52.034;20.650;2022-09-01T08:35:18;18.10;99.40
28767;DHT22;15921;52.034;20.650;2022-09-01T08:37:44;18.10;99.60
28767;DHT22;15921;52.034;20.650;2022-09-01T08:40:13;18.20;99.10
28767;DHT22;15921;52.034;20.650;2022-09-01T08:45:22;18.10;98.40
28767;DHT22;15921;52.034;20.650;2022-09-01T08:47:56;18.10;98.40
28767;DHT22;15921;52.034;20.650;2022-09-01T08:50:22;18.20;98.70
28767;DHT22;15921;52.034;20.650;2022-09-01T08:53:04;18.20;98.60
28767;DHT22;15921;52.034;20.650;2022-09-01T08:55:42;18.30;98.50
28767;DHT22;15921;52.034;20.650;2022-09-01T08:58:09;18.50;97.50
28767;DHT22;15921;52.034;20.650;2022-09-01T09:00:43;18.70;97.20
28767;DHT22;15921;52.034;20.650;2022-09-01T09:06:24;19.20;94.90
28767;DHT22;15921;52.034;20.650;2022-09-01T09:09:05;19.50;94.30
28767;DHT22;15921;52.034;20.650;2022-09-01T09:17:09;19.20;93.80
28767;DHT22;15921;52.034;20.650;2022-09-01T09:19:39;19.00;94.40
28767;DHT22;15921;52.034;20.650;2022-09-01T09:22:08;18.90;94.30
28767;DHT22;15921;52.034;20.650;2022-09-01T09:24:54;18.70;93.70
28767;DHT22;15921;52.034;20.650;2022-09-01T09:27:29;18.50;94.20
28767;DHT22;15921;52.034;20.650;2022-09-01T09:32:53;18.40;95.10
28767;DHT22;15921;52.034;20.650;2022-09-01T09:37:45;18.50;94.80
28767;DHT22;15921;52.034;20.650;2022-09-01T09:40:15;18.50;94.10
28767;DHT22;15921;52.034;20.650;2022-09-01T09:45:40;18.50;94.40
28767;DHT22;15921;52.034;20.650;2022-09-01T09:48:09;18.60;94.60
28767;DHT22;15921;52.034;20.650;2022-09-01T09:50:50;18.70;94.80
28767;DHT22;15921;52.034;20.650;2022-09-01T09:53:37;18.70;94.30
28767;DHT22;15921;52.034;20.650;2022-09-01T09:56:16;18.60;94.00
28767;DHT22;15921;52.034;20.650;2022-09-01T09:58:43;18.70;94.20
28767;DHT22;15921;52.034;20.650;2022-09-01T10:01:28;18.70;94.20
28767;DHT22;15921;52.034;20.650;2022-09-01T10:03:57;18.80;92.70
28767;DHT22;15921;52.034;20.650;2022-09-01T10:06:33;18.90;93.20
28767;DHT22;15921;52.034;20.650;2022-09-01T10:09:02;19.10;92.80
28767;DHT22;15921;52.034;20.650;2022-09-01T10:11:51;19.30;92.40
28767;DHT22;15921;52.034;20.650;2022-09-01T10:14:39;19.60;91.90
28767;DHT22;15921;52.034;20.650;2022-09-01T10:17:13;20.10;91.80
28767;DHT22;15921;52.034;20.650;2022-09-01T10:19:49;20.70;91.10
28767;DHT22;15921;52.034;20.650;2022-09-01T10:22:15;21.20;88.40
28767;DHT22;15921;52.034;20.650;2022-09-01T10:24:41;21.40;86.80
28767;DHT22;15921;52.034;20.650;2022-09-01T10:27:18;21.50;82.80
28767;DHT22;15921;52.034;20.650;2022-09-01T10:32:27;21.40;78.20
28767;DHT22;15921;52.034;20.650;2022-09-01T10:34:54;20.90;78.30
28767;DHT22;15921;52.034;20.650;2022-09-01T10:37:21;20.40;79.20
28767;DHT22;15921;52.034;20.650;2022-09-01T10:40:16;20.30;80.70
28767;DHT22;15921;52.034;20.650;2022-09-01T10:42:45;20.10;78.20
28767;DHT22;15921;52.034;20.650;2022-09-01T10:45:37;20.10;80.10
28767;DHT22;15921;52.034;20.650;2022-09-01T10:50:51;20.60;81.80
28767;DHT22;15921;52.034;20.650;2022-09-01T10:59:38;22.10;74.60
28767;DHT22;15921;52.034;20.650;2022-09-01T11:04:13;21.60;72.90
28767;DHT22;15921;52.034;20.650;2022-09-01T11:07:00;21.40;73.60
28767;DHT22;15921;52.034;20.650;2022-09-01T11:09:33;21.30;71.60
28767;DHT22;15921;52.034;20.650;2022-09-01T11:15:01;21.60;71.70
28767;DHT22;15921;52.034;20.650;2022-09-01T11:17:31;21.90;69.20
28767;DHT22;15921;52.034;20.650;2022-09-01T11:22:45;22.50;69.50
28767;DHT22;15921;52.034;20.650;2022-09-01T11:28:10;21.80;69.20
28767;DHT22;15921;52.034;20.650;2022-09-01T11:33:53;22.00;70.00
28767;DHT22;15921;52.034;20.650;2022-09-01T11:46:49;23.10;63.20
28767;DHT22;15921;52.034;20.650;2022-09-01T11:49:38;22.80;63.80
28767;DHT22;15921;52.034;20.650;2022-09-01T11:52:05;22.40;63.00
28767;DHT22;15921;52.034;20.650;2022-09-01T11:54:39;22.00;65.10
28767;DHT22;15921;52.034;20.650;2022-09-01T11:57:36;22.00;66.00
28767;DHT22;15921;52.034;20.650;2022-09-01T12:00:11;22.40;63.40
28767;DHT22;15921;52.034;20.650;2022-09-01T12:02:49;22.90;63.20
28767;DHT22;15921;52.034;20.650;2022-09-01T12:07:56;23.20;60.70
28767;DHT22;15921;52.034;20.650;2022-09-01T12:13:22;22.40;61.60
28767;DHT22;15921;52.034;20.650;2022-09-01T12:15:54;24.40;58.20
28767;DHT22;15921;52.034;20.650;2022-09-01T12:18:26;27.00;55.00
28767;DHT22;15921;52.034;20.650;2022-09-01T12:20:54;29.70;51.10
28767;DHT22;15921;52.034;20.650;2022-09-01T12:26:00;31.40;45.20
28767;DHT22;15921;52.034;20.650;2022-09-01T12:28:28;29.00;46.60
28767;DHT22;15921;52.034;20.650;2022-09-01T12:30:56;26.80;48.90
28767;DHT22;15921;52.034;20.650;2022-09-01T12:33:23;25.70;51.60
28767;DHT22;15921;52.034;20.650;2022-09-01T12:35:50;28.00;49.40
28767;DHT22;15921;52.034;20.650;2022-09-01T12:40:48;33.20;43.20
28767;DHT22;15921;52.034;20.650;2022-09-01T12:43:34;34.80;40.80
28767;DHT22;15921;52.034;20.650;2022-09-01T12:46:00;35.80;37.50
28767;DHT22;15921;52.034;20.650;2022-09-01T12:48:29;33.70;38.70
28767;DHT22;15921;52.034;20.650;2022-09-01T12:50:58;30.60;42.30
28767;DHT22;15921;52.034;20.650;2022-09-01T12:53:26;28.30;45.60
28767;DHT22;15921;52.034;20.650;2022-09-01T12:55:57;26.60;48.10
28767;DHT22;15921;52.034;20.650;2022-09-01T12:58:26;25.00;50.10
28767;DHT22;15921;52.034;20.650;2022-09-01T13:01:02;25.50;51.40
28767;DHT22;15921;52.034;20.650;2022-09-01T13:03:30;29.20;47.80
28767;DHT22;15921;52.034;20.650;2022-09-01T13:05:58;32.60;43.20
28767;DHT22;15921;52.034;20.650;2022-09-01T13:08:27;33.30;40.60
28767;DHT22;15921;52.034;20.650;2022-09-01T13:11:06;33.60;40.30
28767;DHT22;15921;52.034;20.650;2022-09-01T13:13:32;34.20;38.60
28767;DHT22;15921;52.034;20.650;2022-09-01T13:16:00;32.40;40.50
28767;DHT22;15921;52.034;20.650;2022-09-01T13:18:33;29.90;43.10
28767;DHT22;15921;52.034;20.650;2022-09-01T13:20:59;28.00;45.70
28767;DHT22;15921;52.034;20.650;2022-09-01T13:23:25;26.30;47.50
28767;DHT22;15921;52.034;20.650;2022-09-01T13:25:52;25.20;49.70
28767;DHT22;15921;52.034;20.650;2022-09-01T13:28:18;28.60;47.20
28767;DHT22;15921;52.034;20.650;2022-09-01T13:30:51;32.40;43.40
28767;DHT22;15921;52.034;20.650;2022-09-01T13:33:17;35.70;39.80
28767;DHT22;15921;52.034;20.650;2022-09-01T13:35:43;38.10;37.30
28767;DHT22;15921;52.034;20.650;2022-09-01T13:38:09;36.80;36.30
28767;DHT22;15921;52.034;20.650;2022-09-01T13:40:35;34.50;38.50
28767;DHT22;15921;52.034;20.650;2022-09-01T13:43:00;34.40;38.00
28767;DHT22;15921;52.034;20.650;2022-09-01T13:45:29;32.10;40.40
28767;DHT22;15921;52.034;20.650;2022-09-01T13:47:54;30.00;43.00
28767;DHT22;15921;52.034;20.650;2022-09-01T13:50:21;28.00;45.00
28767;DHT22;15921;52.034;20.650;2022-09-01T13:52:54;26.50;47.20
28767;DHT22;15921;52.034;20.650;2022-09-01T13:55:31;25.40;48.70
28767;DHT22;15921;52.034;20.650;2022-09-01T13:57:57;24.60;49.70
28767;DHT22;15921;52.034;20.650;2022-09-01T14:00:26;26.00;49.60
28767;DHT22;15921;52.034;20.650;2022-09-01T14:02:55;29.90;45.40
28767;DHT22;15921;52.034;20.650;2022-09-01T14:05:27;32.80;41.50
28767;DHT22;15921;52.034;20.650;2022-09-01T14:07:53;34.30;39.50
28767;DHT22;15921;52.034;20.650;2022-09-01T14:10:20;34.90;38.30
28767;DHT22;15921;52.034;20.650;2022-09-01T14:12:47;35.50;37.30
28767;DHT22;15921;52.034;20.650;2022-09-01T14:15:14;35.00;37.00
28767;DHT22;15921;52.034;20.650;2022-09-01T14:17:40;33.40;38.00
28767;DHT22;15921;52.034;20.650;2022-09-01T14:20:10;31.20;39.90
28767;DHT22;15921;52.034;20.650;2022-09-01T14:22:38;29.00;42.20
28767;DHT22;15921;52.034;20.650;2022-09-01T14:25:08;27.00;44.40
28767;DHT22;15921;52.034;20.650;2022-09-01T14:27:35;26.10;46.10
28767;DHT22;15921;52.034;20.650;2022-09-01T14:30:07;25.10;47.20
28767;DHT22;15921;52.034;20.650;2022-09-01T14:32:33;24.30;48.80
28767;DHT22;15921;52.034;20.650;2022-09-01T14:35:00;23.90;49.90
28767;DHT22;15921;52.034;20.650;2022-09-01T14:37:25;23.50;50.70
28767;DHT22;15921;52.034;20.650;2022-09-01T14:39:56;26.20;49.20
28767;DHT22;15921;52.034;20.650;2022-09-01T14:42:22;30.20;44.90
28767;DHT22;15921;52.034;20.650;2022-09-01T14:44:54;32.30;41.30
28767;DHT22;15921;52.034;20.650;2022-09-01T14:47:20;33.50;39.90
28767;DHT22;15921;52.034;20.650;2022-09-01T14:49:46;35.00;37.90
28767;DHT22;15921;52.034;20.650;2022-09-01T14:52:12;36.30;36.50
28767;DHT22;15921;52.034;20.650;2022-09-01T14:54:40;37.40;35.30
28767;DHT22;15921;52.034;20.650;2022-09-01T14:57:21;38.20;33.40
28767;DHT22;15921;52.034;20.650;2022-09-01T14:59:48;38.00;33.90
28767;DHT22;15921;52.034;20.650;2022-09-01T15:02:14;38.30;33.90
28767;DHT22;15921;52.034;20.650;2022-09-01T15:04:39;38.40;33.20
28767;DHT22;15921;52.034;20.650;2022-09-01T15:07:07;36.80;34.10
28767;DHT22;15921;52.034;20.650;2022-09-01T15:09:34;35.60;35.00
28767;DHT22;15921;52.034;20.650;2022-09-01T15:12:12;34.50;35.50
28767;DHT22;15921;52.034;20.650;2022-09-01T15:14:38;34.50;36.00
28767;DHT22;15921;52.034;20.650;2022-09-01T15:17:04;34.90;35.60
28767;DHT22;15921;52.034;20.650;2022-09-01T15:19:30;36.30;34.80
28767;DHT22;15921;52.034;20.650;2022-09-01T15:21:56;38.00;33.90
28767;DHT22;15921;52.034;20.650;2022-09-01T15:24:22;36.80;34.70
28767;DHT22;15921;52.034;20.650;2022-09-01T15:26:48;38.50;33.70
28767;DHT22;15921;52.034;20.650;2022-09-01T15:29:14;39.30;33.30
28767;DHT22;15921;52.034;20.650;2022-09-01T15:31:42;39.40;32.30
28767;DHT22;15921;52.034;20.650;2022-09-01T15:34:09;37.80;33.70
28767;DHT22;15921;52.034;20.650;2022-09-01T15:36:37;35.00;35.90
28767;DHT22;15921;52.034;20.650;2022-09-01T15:39:07;32.50;38.30
28767;DHT22;15921;52.034;20.650;2022-09-01T15:41:34;30.20;41.00
28767;DHT22;15921;52.034;20.650;2022-09-01T15:44:02;30.00;42.10
28767;DHT22;15921;52.034;20.650;2022-09-01T15:46:32;30.60;41.10
28767;DHT22;15921;52.034;20.650;2022-09-01T15:49:04;30.40;41.80
28767;DHT22;15921;52.034;20.650;2022-09-01T15:51:36;32.30;40.40
28767;DHT22;15921;52.034;20.650;2022-09-01T15:54:06;34.40;38.00
28767;DHT22;15921;52.034;20.650;2022-09-01T15:56:32;35.20;36.60
28767;DHT22;15921;52.034;20.650;2022-09-01T15:58:59;36.10;35.90
28767;DHT22;15921;52.034;20.650;2022-09-01T16:01:27;36.70;35.30
28767;DHT22;15921;52.034;20.650;2022-09-01T16:03:54;37.30;35.10
28767;DHT22;15921;52.034;20.650;2022-09-01T16:06:21;37.40;34.40
28767;DHT22;15921;52.034;20.650;2022-09-01T16:08:48;37.20;34.40
28767;DHT22;15921;52.034;20.650;2022-09-01T16:11:15;37.10;34.40
28767;DHT22;15921;52.034;20.650;2022-09-01T16:13:41;36.70;34.70
28767;DHT22;15921;52.034;20.650;2022-09-01T16:19:02;34.80;36.10
28767;DHT22;15921;52.034;20.650;2022-09-01T16:24:13;32.30;38.30
28767;DHT22;15921;52.034;20.650;2022-09-01T16:26:40;29.80;41.30
28767;DHT22;15921;52.034;20.650;2022-09-01T16:29:13;27.90;43.70
28767;DHT22;15921;52.034;20.650;2022-09-01T16:31:41;26.30;46.00
28767;DHT22;15921;52.034;20.650;2022-09-01T16:34:14;25.20;48.20
28767;DHT22;15921;52.034;20.650;2022-09-01T16:39:43;23.60;51.80
28767;DHT22;15921;52.034;20.650;2022-09-01T16:42:39;23.40;54.00
28767;DHT22;15921;52.034;20.650;2022-09-01T16:47:59;22.50;56.00
28767;DHT22;15921;52.034;20.650;2022-09-01T16:50:42;21.90;56.30
28767;DHT22;15921;52.034;20.650;2022-09-01T16:53:29;21.20;58.00
28767;DHT22;15921;52.034;20.650;2022-09-01T16:56:14;20.90;60.20